sensor_id;sensor_type;location;lat;lon;timestamp;P1;durP1;ratioP1;P2;durP2;ratioP2
22270;SDS011;11304;53.520;10.104;2023-01-15T00:03:44;5.35;;;1.20;;
22270;SDS011;11304;53.520;10.104;2023-01-15T00:06:10;6.28;;;1.20;;
22270;SDS011;11304;53.520;10.104;2023-01-15T00:08:36;7.68;;;1.30;;
22270;SDS011;11304;53.520;10.104;2023-01-15T00:11:02;3.15;;;1.00;;
22270;SDS011;11304;53.520;10.104;2023-01-15T00:13:29;5.07;;;1.35;;
22270;SDS011;11304;53.520;10.104;2023-01-15T00:16:05;5.13;;;1.40;;
22270;SDS011;11304;53.520;10.104;2023-01-15T00:18:31;3.83;;;1.10;;
22270;SDS011;11304;53.520;10.104;2023-01-15T00:21:00;7.57;;;0.80;;
22270;SDS011;11304;53.520;10.104;2023-01-15T00:23:26;5.03;;;1.08;;
22270;SDS011;11304;53.520;10.104;2023-01-15T00:26:18;3.45;;;0.60;;
22270;SDS011;11304;53.520;10.104;2023-01-15T00:29:11;4.45;;;0.60;;
22270;SDS011;11304;53.520;10.104;2023-01-15T00:31:37;4.05;;;0.73;;
22270;SDS011;11304;53.520;10.104;2023-01-15T00:34:03;5.70;;;0.80;;
22270;SDS011;11304;53.520;10.104;2023-01-15T00:36:29;6.63;;;0.98;;
22270;SDS011;11304;53.520;10.104;2023-01-15T00:38:55;4.63;;;0.90;;
22270;SDS011;11304;53.520;10.104;2023-01-15T00:41:21;5.22;;;0.85;;
22270;SDS011;11304;53.520;10.104;2023-01-15T00:43:47;4.88;;;0.88;;
22270;SDS011;11304;53.520;10.104;2023-01-15T00:46:14;5.47;;;1.08;;
22270;SDS011;11304;53.520;10.104;2023-01-15T00:48:40;9.52;;;1.02;;
22270;SDS011;11304;53.520;10.104;2023-01-15T00:51:06;7.10;;;1.23;;
22270;SDS011;11304;53.520;10.104;2023-01-15T00:53:32;6.65;;;0.90;;
22270;SDS011;11304;53.520;10.104;2023-01-15T00:55:58;4.03;;;0.70;;
22270;SDS011;11304;53.520;10.104;2023-01-15T00:58:24;4.47;;;0.80;;
22270;SDS011;11304;53.520;10.104;2023-01-15T01:00:53;2.42;;;0.50;;
22270;SDS011;11304;53.520;10.104;2023-01-15T01:03:20;3.72;;;0.70;;
22270;SDS011;11304;53.520;10.104;2023-01-15T01:05:46;4.78;;;0.95;;
22270;SDS011;11304;53.520;10.104;2023-01-15T01:08:12;4.88;;;0.95;;
22270;SDS011;11304;53.520;10.104;2023-01-15T01:10:39;3.20;;;0.68;;
22270;SDS011;11304;53.520;10.104;2023-01-15T01:13:05;5.57;;;0.75;;
22270;SDS011;11304;53.520;10.104;2023-01-15T01:15:34;3.47;;;0.80;;
22270;SDS011;11304;53.520;10.104;2023-01-15T01:18:00;4.72;;;0.75;;
22270;SDS011;11304;53.520;10.104;2023-01-15T01:20:27;3.97;;;0.77;;
22270;SDS011;11304;53.520;10.104;2023-01-15T01:22:53;3.35;;;0.70;;
22270;SDS011;11304;53.520;10.104;2023-01-15T01:25:19;3.63;;;0.88;;
22270;SDS011;11304;53.520;10.104;2023-01-15T01:27:45;3.78;;;0.60;;
22270;SDS011;11304;53.520;10.104;2023-01-15T01:30:12;4.53;;;1.13;;
22270;SDS011;11304;53.520;10.104;2023-01-15T01:32:38;5.00;;;1.00;;
22270;SDS011;11304;53.520;10.104;2023-01-15T01:35:04;5.45;;;0.95;;
22270;SDS011;11304;53.520;10.104;2023-01-15T01:37:31;4.45;;;0.82;;
22270;SDS011;11304;53.520;10.104;2023-01-15T01:39:57;3.83;;;0.77;;
22270;SDS011;11304;53.520;10.104;2023-01-15T01:42:23;5.05;;;0.93;;
22270;SDS011;11304;53.520;10.104;2023-01-15T01:47:16;6.90;;;1.40;;
22270;SDS011;11304;53.520;10.104;2023-01-15T01:49:46;5.15;;;0.90;;
22270;SDS011;11304;53.520;10.104;2023-01-15T01:52:15;4.13;;;0.90;;
22270;SDS011;11304;53.520;10.104;2023-01-15T01:54:44;7.28;;;1.23;;
22270;SDS011;11304;53.520;10.104;2023-01-15T01:57:11;4.85;;;1.00;;
22270;SDS011;11304;53.520;10.104;2023-01-15T01:59:37;5.10;;;1.13;;
22270;SDS011;11304;53.520;10.104;2023-01-15T02:02:04;8.30;;;1.33;;
22270;SDS011;11304;53.520;10.104;2023-01-15T02:04:31;5.10;;;1.13;;
22270;SDS011;11304;53.520;10.104;2023-01-15T02:06:59;5.28;;;1.10;;
22270;SDS011;11304;53.520;10.104;2023-01-15T02:09:25;7.28;;;1.40;;
22270;SDS011;11304;53.520;10.104;2023-01-15T02:11:51;6.47;;;1.20;;
22270;SDS011;11304;53.520;10.104;2023-01-15T02:14:23;6.55;;;1.35;;
22270;SDS011;11304;53.520;10.104;2023-01-15T02:32:11;7.20;;;1.40;;
22270;SDS011;11304;53.520;10.104;2023-01-15T02:34:41;9.75;;;1.65;;
22270;SDS011;11304;53.520;10.104;2023-01-15T02:37:10;4.63;;;1.20;;
22270;SDS011;11304;53.520;10.104;2023-01-15T02:39:37;5.65;;;1.02;;
22270;SDS011;11304;53.520;10.104;2023-01-15T02:42:06;5.43;;;1.00;;
22270;SDS011;11304;53.520;10.104;2023-01-15T02:44:33;8.15;;;1.38;;
22270;SDS011;11304;53.520;10.104;2023-01-15T02:47:00;8.93;;;2.08;;
22270;SDS011;11304;53.520;10.104;2023-01-15T02:49:28;6.75;;;1.17;;
22270;SDS011;11304;53.520;10.104;2023-01-15T02:51:57;8.13;;;1.08;;
22270;SDS011;11304;53.520;10.104;2023-01-15T02:54:26;11.13;;;1.75;;
22270;SDS011;11304;53.520;10.104;2023-01-15T02:56:53;6.07;;;1.35;;
22270;SDS011;11304;53.520;10.104;2023-01-15T02:59:23;6.20;;;1.10;;
22270;SDS011;11304;53.520;10.104;2023-01-15T03:01:53;7.88;;;1.27;;
22270;SDS011;11304;53.520;10.104;2023-01-15T03:04:24;9.02;;;1.10;;
22270;SDS011;11304;53.520;10.104;2023-01-15T03:06:55;9.02;;;1.40;;
22270;SDS011;11304;53.520;10.104;2023-01-15T03:09:23;9.98;;;1.48;;
22270;SDS011;11304;53.520;10.104;2023-01-15T03:11:56;10.02;;;1.65;;
22270;SDS011;11304;53.520;10.104;2023-01-15T03:15:01;9.82;;;1.40;;
22270;SDS011;11304;53.520;10.104;2023-01-15T03:17:19;4.75;;;1.45;;
22270;SDS011;11304;53.520;10.104;2023-01-15T03:19:48;8.57;;;1.55;;
22270;SDS011;11304;53.520;10.104;2023-01-15T03:22:20;10.15;;;1.85;;
22270;SDS011;11304;53.520;10.104;2023-01-15T03:24:49;11.18;;;1.70;;
22270;SDS011;11304;53.520;10.104;2023-01-15T03:27:17;7.88;;;1.23;;
22270;SDS011;11304;53.520;10.104;2023-01-15T03:29:50;11.75;;;2.00;;
22270;SDS011;11304;53.520;10.104;2023-01-15T03:32:18;11.20;;;1.90;;
22270;SDS011;11304;53.520;10.104;2023-01-15T03:34:51;13.88;;;1.85;;
22270;SDS011;11304;53.520;10.104;2023-01-15T03:37:18;11.15;;;1.40;;
22270;SDS011;11304;53.520;10.104;2023-01-15T03:39:45;9.57;;;1.58;;
22270;SDS011;11304;53.520;10.104;2023-01-15T03:47:13;8.07;;;1.73;;
22270;SDS011;11304;53.520;10.104;2023-01-15T03:52:25;12.05;;;1.50;;
22270;SDS011;11304;53.520;10.104;2023-01-15T03:59:50;9.15;;;1.40;;
22270;SDS011;11304;53.520;10.104;2023-01-15T04:02:17;10.07;;;1.80;;
22270;SDS011;11304;53.520;10.104;2023-01-15T04:04:45;12.60;;;1.98;;
22270;SDS011;11304;53.520;10.104;2023-01-15T04:07:12;9.45;;;2.15;;
22270;SDS011;11304;53.520;10.104;2023-01-15T04:09:38;7.85;;;1.40;;
22270;SDS011;11304;53.520;10.104;2023-01-15T04:12:05;10.05;;;2.10;;
22270;SDS011;11304;53.520;10.104;2023-01-15T04:14:31;13.02;;;1.92;;
22270;SDS011;11304;53.520;10.104;2023-01-15T04:16:58;9.60;;;1.73;;
22270;SDS011;11304;53.520;10.104;2023-01-15T04:19:24;12.65;;;2.15;;
22270;SDS011;11304;53.520;10.104;2023-01-15T04:21:50;10.25;;;1.60;;
22270;SDS011;11304;53.520;10.104;2023-01-15T04:24:16;9.93;;;1.55;;
22270;SDS011;11304;53.520;10.104;2023-01-15T04:26:42;9.38;;;2.03;;
22270;SDS011;11304;53.520;10.104;2023-01-15T04:29:08;16.20;;;2.10;;
22270;SDS011;11304;53.520;10.104;2023-01-15T04:31:34;9.50;;;1.60;;
22270;SDS011;11304;53.520;10.104;2023-01-15T04:34:01;16.50;;;2.33;;
22270;SDS011;11304;53.520;10.104;2023-01-15T04:36:27;14.25;;;1.83;;
22270;SDS011;11304;53.520;10.104;2023-01-15T04:38:53;8.88;;;1.70;;
22270;SDS011;11304;53.520;10.104;2023-01-15T04:41:21;7.18;;;1.40;;
22270;SDS011;11304;53.520;10.104;2023-01-15T04:44:06;11.95;;;1.92;;
22270;SDS011;11304;53.520;10.104;2023-01-15T04:46:52;10.68;;;1.67;;
22270;SDS011;11304;53.520;10.104;2023-01-15T04:49:18;9.20;;;1.52;;
22270;SDS011;11304;53.520;10.104;2023-01-15T04:51:44;8.20;;;1.67;;
22270;SDS011;11304;53.520;10.104;2023-01-15T04:54:11;8.27;;;1.42;;
22270;SDS011;11304;53.520;10.104;2023-01-15T04:56:39;7.57;;;1.58;;
22270;SDS011;11304;53.520;10.104;2023-01-15T04:59:06;7.78;;;1.73;;
22270;SDS011;11304;53.520;10.104;2023-01-15T05:01:32;10.68;;;1.58;;
22270;SDS011;11304;53.520;10.104;2023-01-15T05:03:59;8.98;;;1.48;;
22270;SDS011;11304;53.520;10.104;2023-01-15T05:06:25;9.43;;;2.03;;
22270;SDS011;11304;53.520;10.104;2023-01-15T05:08:51;8.73;;;1.67;;
22270;SDS011;11304;53.520;10.104;2023-01-15T05:11:17;7.43;;;1.80;;
22270;SDS011;11304;53.520;10.104;2023-01-15T05:13:43;11.25;;;1.60;;
22270;SDS011;11304;53.520;10.104;2023-01-15T05:16:14;9.68;;;1.60;;
22270;SDS011;11304;53.520;10.104;2023-01-15T05:18:41;13.13;;;1.63;;
22270;SDS011;11304;53.520;10.104;2023-01-15T05:21:12;9.38;;;1.58;;
22270;SDS011;11304;53.520;10.104;2023-01-15T05:23:38;13.32;;;1.77;;
22270;SDS011;11304;53.520;10.104;2023-01-15T05:26:04;8.77;;;1.80;;
22270;SDS011;11304;53.520;10.104;2023-01-15T05:28:30;10.77;;;1.92;;
22270;SDS011;11304;53.520;10.104;2023-01-15T05:30:56;9.02;;;1.70;;
22270;SDS011;11304;53.520;10.104;2023-01-15T05:33:22;11.73;;;1.75;;
22270;SDS011;11304;53.520;10.104;2023-01-15T05:35:48;12.50;;;1.90;;
22270;SDS011;11304;53.520;10.104;2023-01-15T05:38:14;11.50;;;1.88;;
22270;SDS011;11304;53.520;10.104;2023-01-15T05:40:40;10.80;;;1.60;;
22270;SDS011;11304;53.520;10.104;2023-01-15T05:43:06;16.35;;;1.92;;
22270;SDS011;11304;53.520;10.104;2023-01-15T05:45:35;7.95;;;1.58;;
22270;SDS011;11304;53.520;10.104;2023-01-15T05:48:01;11.70;;;1.77;;
22270;SDS011;11304;53.520;10.104;2023-01-15T05:50:27;14.40;;;1.85;;
22270;SDS011;11304;53.520;10.104;2023-01-15T05:52:53;10.18;;;1.83;;
22270;SDS011;11304;53.520;10.104;2023-01-15T05:55:19;9.45;;;1.70;;
22270;SDS011;11304;53.520;10.104;2023-01-15T05:57:45;12.13;;;2.28;;
22270;SDS011;11304;53.520;10.104;2023-01-15T06:00:13;13.50;;;1.75;;
22270;SDS011;11304;53.520;10.104;2023-01-15T06:02:39;12.00;;;1.77;;
22270;SDS011;11304;53.520;10.104;2023-01-15T06:05:05;11.73;;;1.80;;
22270;SDS011;11304;53.520;10.104;2023-01-15T06:07:31;10.75;;;2.28;;
22270;SDS011;11304;53.520;10.104;2023-01-15T06:09:57;11.00;;;2.55;;
22270;SDS011;11304;53.520;10.104;2023-01-15T06:12:23;8.52;;;1.50;;
22270;SDS011;11304;53.520;10.104;2023-01-15T06:14:49;11.23;;;1.80;;
22270;SDS011;11304;53.520;10.104;2023-01-15T06:17:15;12.50;;;1.75;;
22270;SDS011;11304;53.520;10.104;2023-01-15T06:19:41;8.98;;;1.60;;
22270;SDS011;11304;53.520;10.104;2023-01-15T06:22:07;14.35;;;2.08;;
22270;SDS011;11304;53.520;10.104;2023-01-15T06:24:33;10.35;;;1.88;;
22270;SDS011;11304;53.520;10.104;2023-01-15T06:26:59;12.13;;;2.08;;
22270;SDS011;11304;53.520;10.104;2023-01-15T06:29:25;8.85;;;1.88;;
22270;SDS011;11304;53.520;10.104;2023-01-15T06:31:51;7.97;;;1.45;;
22270;SDS011;11304;53.520;10.104;2023-01-15T06:34:17;10.32;;;1.88;;
22270;SDS011;11304;53.520;10.104;2023-01-15T06:36:43;10.40;;;2.20;;
22270;SDS011;11304;53.520;10.104;2023-01-15T06:39:10;10.02;;;1.90;;
22270;SDS011;11304;53.520;10.104;2023-01-15T06:41:36;19.50;;;3.05;;
22270;SDS011;11304;53.520;10.104;2023-01-15T06:44:21;10.65;;;1.58;;
22270;SDS011;11304;53.520;10.104;2023-01-15T06:47:13;9.40;;;1.70;;
22270;SDS011;11304;53.520;10.104;2023-01-15T06:49:46;12.90;;;1.67;;
22270;SDS011;11304;53.520;10.104;2023-01-15T06:52:12;14.80;;;2.10;;
22270;SDS011;11304;53.520;10.104;2023-01-15T06:54:38;9.45;;;1.50;;
22270;SDS011;11304;53.520;10.104;2023-01-15T06:57:05;8.77;;;1.40;;
22270;SDS011;11304;53.520;10.104;2023-01-15T06:59:31;10.95;;;1.70;;
22270;SDS011;11304;53.520;10.104;2023-01-15T07:01:57;8.68;;;2.08;;
22270;SDS011;11304;53.520;10.104;2023-01-15T07:04:23;10.65;;;1.70;;
22270;SDS011;11304;53.520;10.104;2023-01-15T07:06:49;11.55;;;2.00;;
22270;SDS011;11304;53.520;10.104;2023-01-15T07:09:15;8.88;;;2.15;;
22270;SDS011;11304;53.520;10.104;2023-01-15T07:11:41;12.50;;;2.60;;
22270;SDS011;11304;53.520;10.104;2023-01-15T07:14:23;7.93;;;1.52;;
22270;SDS011;11304;53.520;10.104;2023-01-15T07:16:49;9.55;;;1.65;;
22270;SDS011;11304;53.520;10.104;2023-01-15T07:19:16;6.75;;;1.73;;
22270;SDS011;11304;53.520;10.104;2023-01-15T07:21:42;10.70;;;1.98;;
22270;SDS011;11304;53.520;10.104;2023-01-15T07:24:08;10.07;;;2.15;;
22270;SDS011;11304;53.520;10.104;2023-01-15T07:26:35;9.98;;;1.83;;
22270;SDS011;11304;53.520;10.104;2023-01-15T07:29:01;8.25;;;1.88;;
22270;SDS011;11304;53.520;10.104;2023-01-15T07:31:27;11.32;;;1.70;;
22270;SDS011;11304;53.520;10.104;2023-01-15T07:33:54;10.90;;;2.10;;
22270;SDS011;11304;53.520;10.104;2023-01-15T07:36:21;6.68;;;1.30;;
22270;SDS011;11304;53.520;10.104;2023-01-15T07:38:47;11.43;;;1.67;;
22270;SDS011;11304;53.520;10.104;2023-01-15T07:41:13;9.93;;;2.28;;
22270;SDS011;11304;53.520;10.104;2023-01-15T07:43:58;7.90;;;2.00;;
22270;SDS011;11304;53.520;10.104;2023-01-15T07:46:42;8.77;;;1.90;;
22270;SDS011;11304;53.520;10.104;2023-01-15T07:49:27;11.55;;;2.10;;
22270;SDS011;11304;53.520;10.104;2023-01-15T07:52:13;14.23;;;2.10;;
22270;SDS011;11304;53.520;10.104;2023-01-15T07:54:39;10.18;;;1.90;;
22270;SDS011;11304;53.520;10.104;2023-01-15T07:57:06;10.00;;;2.03;;
22270;SDS011;11304;53.520;10.104;2023-01-15T07:59:32;8.00;;;1.98;;
22270;SDS011;11304;53.520;10.104;2023-01-15T08:01:58;10.95;;;1.88;;
22270;SDS011;11304;53.520;10.104;2023-01-15T08:04:24;12.30;;;2.22;;
22270;SDS011;11304;53.520;10.104;2023-01-15T08:06:50;10.20;;;1.83;;
22270;SDS011;11304;53.520;10.104;2023-01-15T08:09:16;9.20;;;2.08;;
22270;SDS011;11304;53.520;10.104;2023-01-15T08:11:42;10.23;;;2.13;;
22270;SDS011;11304;53.520;10.104;2023-01-15T08:14:27;11.25;;;2.25;;
22270;SDS011;11304;53.520;10.104;2023-01-15T08:17:11;19.98;;;3.00;;
22270;SDS011;11304;53.520;10.104;2023-01-15T08:19:37;7.95;;;2.00;;
22270;SDS011;11304;53.520;10.104;2023-01-15T08:22:03;12.23;;;2.00;;
22270;SDS011;11304;53.520;10.104;2023-01-15T08:24:29;10.88;;;2.13;;
22270;SDS011;11304;53.520;10.104;2023-01-15T08:26:55;8.48;;;1.90;;
22270;SDS011;11304;53.520;10.104;2023-01-15T08:29:21;15.57;;;2.13;;
22270;SDS011;11304;53.520;10.104;2023-01-15T08:31:48;13.38;;;2.28;;
22270;SDS011;11304;53.520;10.104;2023-01-15T08:34:14;7.50;;;2.05;;
22270;SDS011;11304;53.520;10.104;2023-01-15T08:36:40;13.90;;;2.08;;
22270;SDS011;11304;53.520;10.104;2023-01-15T08:39:06;9.43;;;1.75;;
22270;SDS011;11304;53.520;10.104;2023-01-15T08:41:32;12.68;;;1.70;;
22270;SDS011;11304;53.520;10.104;2023-01-15T08:43:58;13.35;;;2.10;;
22270;SDS011;11304;53.520;10.104;2023-01-15T08:46:25;11.07;;;2.10;;
22270;SDS011;11304;53.520;10.104;2023-01-15T08:48:51;8.98;;;2.20;;
22270;SDS011;11304;53.520;10.104;2023-01-15T08:51:18;11.38;;;2.10;;
22270;SDS011;11304;53.520;10.104;2023-01-15T08:53:44;7.60;;;1.85;;
22270;SDS011;11304;53.520;10.104;2023-01-15T08:56:17;14.68;;;2.42;;
22270;SDS011;11304;53.520;10.104;2023-01-15T08:58:44;12.35;;;2.13;;
22270;SDS011;11304;53.520;10.104;2023-01-15T09:01:11;11.82;;;2.08;;
22270;SDS011;11304;53.520;10.104;2023-01-15T09:03:41;14.48;;;2.25;;
22270;SDS011;11304;53.520;10.104;2023-01-15T09:06:07;19.17;;;2.50;;
22270;SDS011;11304;53.520;10.104;2023-01-15T09:08:35;10.45;;;1.77;;
22270;SDS011;11304;53.520;10.104;2023-01-15T09:11:01;11.30;;;2.08;;
22270;SDS011;11304;53.520;10.104;2023-01-15T09:13:28;9.25;;;1.85;;
22270;SDS011;11304;53.520;10.104;2023-01-15T09:16:00;12.30;;;2.63;;
22270;SDS011;11304;53.520;10.104;2023-01-15T09:18:27;12.02;;;1.50;;
22270;SDS011;11304;53.520;10.104;2023-01-15T09:20:53;9.77;;;2.15;;
22270;SDS011;11304;53.520;10.104;2023-01-15T09:23:19;17.77;;;2.15;;
22270;SDS011;11304;53.520;10.104;2023-01-15T09:28:17;10.27;;;1.85;;
22270;SDS011;11304;53.520;10.104;2023-01-15T09:30:43;8.52;;;1.70;;
22270;SDS011;11304;53.520;10.104;2023-01-15T09:33:09;9.43;;;1.45;;
22270;SDS011;11304;53.520;10.104;2023-01-15T09:35:36;7.88;;;1.65;;
22270;SDS011;11304;53.520;10.104;2023-01-15T09:38:02;9.20;;;1.70;;
22270;SDS011;11304;53.520;10.104;2023-01-15T09:40:33;8.27;;;1.63;;
22270;SDS011;11304;53.520;10.104;2023-01-15T09:43:03;7.25;;;1.20;;
22270;SDS011;11304;53.520;10.104;2023-01-15T09:45:36;9.60;;;1.42;;
22270;SDS011;11304;53.520;10.104;2023-01-15T09:53:49;7.78;;;1.23;;
22270;SDS011;11304;53.520;10.104;2023-01-15T09:55:53;10.13;;;1.52;;
22270;SDS011;11304;53.520;10.104;2023-01-15T09:58:20;6.78;;;1.25;;
22270;SDS011;11304;53.520;10.104;2023-01-15T10:00:52;5.80;;;0.80;;
22270;SDS011;11304;53.520;10.104;2023-01-15T10:08:36;10.23;;;1.58;;
22270;SDS011;11304;53.520;10.104;2023-01-15T10:13:43;5.72;;;1.10;;
22270;SDS011;11304;53.520;10.104;2023-01-15T10:16:10;10.80;;;1.33;;
22270;SDS011;11304;53.520;10.104;2023-01-15T10:18:37;7.88;;;1.52;;
22270;SDS011;11304;53.520;10.104;2023-01-15T10:31:52;8.55;;;1.38;;
22270;SDS011;11304;53.520;10.104;2023-01-15T10:34:23;8.65;;;1.20;;
22270;SDS011;11304;53.520;10.104;2023-01-15T10:36:55;9.45;;;1.50;;
22270;SDS011;11304;53.520;10.104;2023-01-15T10:41:53;7.20;;;1.10;;
22270;SDS011;11304;53.520;10.104;2023-01-15T10:44:27;8.35;;;1.27;;
22270;SDS011;11304;53.520;10.104;2023-01-15T10:46:57;4.80;;;1.27;;
22270;SDS011;11304;53.520;10.104;2023-01-15T10:51:51;9.88;;;1.10;;
22270;SDS011;11304;53.520;10.104;2023-01-15T10:54:31;12.57;;;1.88;;
22270;SDS011;11304;53.520;10.104;2023-01-15T10:57:03;6.38;;;1.30;;
22270;SDS011;11304;53.520;10.104;2023-01-15T10:59:37;6.55;;;1.30;;
22270;SDS011;11304;53.520;10.104;2023-01-15T11:02:22;6.60;;;1.27;;
22270;SDS011;11304;53.520;10.104;2023-01-15T11:04:49;7.60;;;1.55;;
22270;SDS011;11304;53.520;10.104;2023-01-15T11:07:15;9.18;;;1.40;;
22270;SDS011;11304;53.520;10.104;2023-01-15T11:09:42;5.68;;;1.27;;
22270;SDS011;11304;53.520;10.104;2023-01-15T11:12:20;5.70;;;1.33;;
22270;SDS011;11304;53.520;10.104;2023-01-15T11:14:46;7.07;;;1.15;;
22270;SDS011;11304;53.520;10.104;2023-01-15T11:17:36;9.05;;;1.23;;
22270;SDS011;11304;53.520;10.104;2023-01-15T11:20:24;9.40;;;1.50;;
22270;SDS011;11304;53.520;10.104;2023-01-15T11:22:53;5.70;;;1.25;;
22270;SDS011;11304;53.520;10.104;2023-01-15T11:25:27;2.38;;;0.60;;
22270;SDS011;11304;53.520;10.104;2023-01-15T11:27:53;5.85;;;1.10;;
22270;SDS011;11304;53.520;10.104;2023-01-15T11:30:33;8.95;;;1.50;;
22270;SDS011;11304;53.520;10.104;2023-01-15T11:33:04;6.13;;;1.17;;
22270;SDS011;11304;53.520;10.104;2023-01-15T11:35:31;7.75;;;1.50;;
22270;SDS011;11304;53.520;10.104;2023-01-15T11:38:04;7.32;;;1.60;;
22270;SDS011;11304;53.520;10.104;2023-01-15T11:40:30;6.13;;;1.10;;
22270;SDS011;11304;53.520;10.104;2023-01-15T11:42:56;4.53;;;1.27;;
22270;SDS011;11304;53.520;10.104;2023-01-15T11:45:45;8.30;;;1.48;;
22270;SDS011;11304;53.520;10.104;2023-01-15T11:51:15;8.18;;;1.85;;
22270;SDS011;11304;53.520;10.104;2023-01-15T11:53:46;10.38;;;1.58;;
22270;SDS011;11304;53.520;10.104;2023-01-15T11:56:14;4.40;;;1.50;;
22270;SDS011;11304;53.520;10.104;2023-01-15T11:58:44;5.85;;;1.38;;
22270;SDS011;11304;53.520;10.104;2023-01-15T12:01:12;6.93;;;1.00;;
22270;SDS011;11304;53.520;10.104;2023-01-15T12:03:41;6.53;;;0.98;;
22270;SDS011;11304;53.520;10.104;2023-01-15T12:06:08;3.75;;;0.70;;
22270;SDS011;11304;53.520;10.104;2023-01-15T12:08:42;1.80;;;0.40;;
22270;SDS011;11304;53.520;10.104;2023-01-15T12:16:44;2.30;;;0.40;;
22270;SDS011;11304;53.520;10.104;2023-01-15T12:29:33;3.00;;;0.90;;
22270;SDS011;11304;53.520;10.104;2023-01-15T12:32:13;3.95;;;0.80;;
22270;SDS011;11304;53.520;10.104;2023-01-15T12:37:24;2.40;;;0.90;;
22270;SDS011;11304;53.520;10.104;2023-01-15T12:39:56;5.18;;;1.15;;
22270;SDS011;11304;53.520;10.104;2023-01-15T12:42:24;5.28;;;1.05;;
22270;SDS011;11304;53.520;10.104;2023-01-15T12:45:14;6.60;;;1.17;;
22270;SDS011;11304;53.520;10.104;2023-01-15T12:53:04;7.97;;;2.00;;
22270;SDS011;11304;53.520;10.104;2023-01-15T12:55:33;5.63;;;1.48;;
22270;SDS011;11304;53.520;10.104;2023-01-15T12:58:02;9.05;;;1.80;;
22270;SDS011;11304;53.520;10.104;2023-01-15T13:00:34;6.57;;;1.50;;
22270;SDS011;11304;53.520;10.104;2023-01-15T13:05:42;13.30;;;1.70;;
22270;SDS011;11304;53.520;10.104;2023-01-15T13:10:57;6.25;;;1.80;;
22270;SDS011;11304;53.520;10.104;2023-01-15T13:13:25;5.78;;;1.45;;
22270;SDS011;11304;53.520;10.104;2023-01-15T13:16:02;9.05;;;1.98;;
22270;SDS011;11304;53.520;10.104;2023-01-15T13:18:32;8.30;;;1.35;;
22270;SDS011;11304;53.520;10.104;2023-01-15T13:21:00;5.25;;;1.60;;
22270;SDS011;11304;53.520;10.104;2023-01-15T13:28:51;9.85;;;1.73;;
22270;SDS011;11304;53.520;10.104;2023-01-15T13:33:55;10.32;;;2.00;;
22270;SDS011;11304;53.520;10.104;2023-01-15T13:36:25;9.65;;;1.60;;
22270;SDS011;11304;53.520;10.104;2023-01-15T13:38:54;7.32;;;1.70;;
22270;SDS011;11304;53.520;10.104;2023-01-15T13:41:25;8.95;;;1.70;;
22270;SDS011;11304;53.520;10.104;2023-01-15T13:44:13;11.07;;;1.60;;
22270;SDS011;11304;53.520;10.104;2023-01-15T13:46:41;7.18;;;1.50;;
22270;SDS011;11304;53.520;10.104;2023-01-15T13:49:17;6.10;;;1.42;;
22270;SDS011;11304;53.520;10.104;2023-01-15T13:51:46;7.55;;;1.17;;
22270;SDS011;11304;53.520;10.104;2023-01-15T13:54:13;5.10;;;1.15;;
22270;SDS011;11304;53.520;10.104;2023-01-15T13:56:40;6.97;;;1.17;;
22270;SDS011;11304;53.520;10.104;2023-01-15T14:01:53;7.93;;;1.13;;
22270;SDS011;11304;53.520;10.104;2023-01-15T14:04:30;6.88;;;1.42;;
22270;SDS011;11304;53.520;10.104;2023-01-15T14:06:57;8.07;;;1.60;;
22270;SDS011;11304;53.520;10.104;2023-01-15T14:14:49;6.35;;;1.38;;
22270;SDS011;11304;53.520;10.104;2023-01-15T14:33:02;9.07;;;1.35;;
22270;SDS011;11304;53.520;10.104;2023-01-15T14:35:34;4.32;;;1.30;;
22270;SDS011;11304;53.520;10.104;2023-01-15T14:38:07;12.80;;;1.83;;
22270;SDS011;11304;53.520;10.104;2023-01-15T14:40:37;8.68;;;2.05;;
22270;SDS011;11304;53.520;10.104;2023-01-15T14:43:10;9.35;;;1.63;;
22270;SDS011;11304;53.520;10.104;2023-01-15T14:45:42;10.07;;;1.38;;
22270;SDS011;11304;53.520;10.104;2023-01-15T14:48:20;8.30;;;1.63;;
22270;SDS011;11304;53.520;10.104;2023-01-15T14:56:06;8.57;;;1.40;;
22270;SDS011;11304;53.520;10.104;2023-01-15T15:06:26;8.48;;;1.60;;
22270;SDS011;11304;53.520;10.104;2023-01-15T15:08:53;8.32;;;1.60;;
22270;SDS011;11304;53.520;10.104;2023-01-15T15:11:28;8.82;;;2.88;;
22270;SDS011;11304;53.520;10.104;2023-01-15T15:14:17;6.80;;;1.63;;
22270;SDS011;11304;53.520;10.104;2023-01-15T15:16:45;7.07;;;1.63;;
22270;SDS011;11304;53.520;10.104;2023-01-15T15:19:14;7.18;;;1.35;;
22270;SDS011;11304;53.520;10.104;2023-01-15T15:24:11;9.27;;;1.95;;
22270;SDS011;11304;53.520;10.104;2023-01-15T15:26:39;10.18;;;1.88;;
22270;SDS011;11304;53.520;10.104;2023-01-15T15:31:33;8.23;;;1.52;;
22270;SDS011;11304;53.520;10.104;2023-01-15T15:33:59;8.33;;;1.70;;
22270;SDS011;11304;53.520;10.104;2023-01-15T15:36:27;9.48;;;1.63;;
22270;SDS011;11304;53.520;10.104;2023-01-15T15:38:57;7.85;;;1.50;;
22270;SDS011;11304;53.520;10.104;2023-01-15T15:41:25;10.13;;;1.73;;
22270;SDS011;11304;53.520;10.104;2023-01-15T15:44:13;10.20;;;2.13;;
22270;SDS011;11304;53.520;10.104;2023-01-15T15:46:59;12.30;;;1.80;;
22270;SDS011;11304;53.520;10.104;2023-01-15T15:49:45;8.05;;;2.25;;
22270;SDS011;11304;53.520;10.104;2023-01-15T15:52:14;13.70;;;2.40;;
22270;SDS011;11304;53.520;10.104;2023-01-15T15:54:40;9.45;;;1.90;;
22270;SDS011;11304;53.520;10.104;2023-01-15T15:57:11;10.57;;;2.08;;
22270;SDS011;11304;53.520;10.104;2023-01-15T15:59:43;5.68;;;1.20;;
22270;SDS011;11304;53.520;10.104;2023-01-15T16:02:13;7.13;;;1.88;;
22270;SDS011;11304;53.520;10.104;2023-01-15T16:04:49;12.77;;;1.85;;
22270;SDS011;11304;53.520;10.104;2023-01-15T16:09:58;7.97;;;1.95;;
22270;SDS011;11304;53.520;10.104;2023-01-15T16:12:25;10.68;;;2.53;;
22270;SDS011;11304;53.520;10.104;2023-01-15T16:14:54;4.78;;;1.30;;
22270;SDS011;11304;53.520;10.104;2023-01-15T16:17:21;5.22;;;1.52;;
22270;SDS011;11304;53.520;10.104;2023-01-15T16:19:50;6.35;;;1.58;;
22270;SDS011;11304;53.520;10.104;2023-01-15T16:22:17;6.95;;;1.90;;
22270;SDS011;11304;53.520;10.104;2023-01-15T16:24:51;7.38;;;2.08;;
22270;SDS011;11304;53.520;10.104;2023-01-15T16:27:17;5.80;;;1.73;;
22270;SDS011;11304;53.520;10.104;2023-01-15T16:29:47;13.23;;;2.07;;
22270;SDS011;11304;53.520;10.104;2023-01-15T16:32:16;7.40;;;1.33;;
22270;SDS011;11304;53.520;10.104;2023-01-15T16:34:45;6.07;;;1.55;;
22270;SDS011;11304;53.520;10.104;2023-01-15T16:37:29;9.38;;;1.80;;
22270;SDS011;11304;53.520;10.104;2023-01-15T16:39:56;5.60;;;1.33;;
22270;SDS011;11304;53.520;10.104;2023-01-15T16:42:36;5.65;;;1.23;;
22270;SDS011;11304;53.520;10.104;2023-01-15T16:45:18;6.68;;;1.73;;
22270;SDS011;11304;53.520;10.104;2023-01-15T16:50:30;4.00;;;1.13;;
22270;SDS011;11304;53.520;10.104;2023-01-15T16:52:57;6.57;;;1.30;;
22270;SDS011;11304;53.520;10.104;2023-01-15T17:00:40;3.60;;;1.10;;
22270;SDS011;11304;53.520;10.104;2023-01-15T17:03:14;5.65;;;1.90;;
22270;SDS011;11304;53.520;10.104;2023-01-15T17:05:41;3.67;;;1.45;;
22270;SDS011;11304;53.520;10.104;2023-01-15T17:08:18;3.92;;;1.10;;
22270;SDS011;11304;53.520;10.104;2023-01-15T17:11:18;4.88;;;1.50;;
22270;SDS011;11304;53.520;10.104;2023-01-15T17:13:38;4.80;;;1.45;;
22270;SDS011;11304;53.520;10.104;2023-01-15T17:18:37;3.20;;;1.20;;
22270;SDS011;11304;53.520;10.104;2023-01-15T17:21:03;3.63;;;1.38;;
22270;SDS011;11304;53.520;10.104;2023-01-15T17:23:32;4.88;;;1.42;;